createdAt,value
2022-09-01T16:02:10.931Z,71.00
2022-09-01T16:03:43.063Z,68.00
2022-09-01T16:05:15.682Z,66.20
2022-09-01T16:06:49.740Z,69.80
2022-09-01T16:08:21.910Z,67.40
2022-09-01T16:09:58.201Z,63.20
2022-09-01T16:11:30.419Z,62.20
2022-09-01T16:13:02.696Z,58.20
2022-09-01T16:14:36.375Z,59.20
2022-09-01T16:16:56.525Z,56.20
2022-09-01T16:18:41.717Z,56.80
2022-09-01T16:20:21.155Z,49.60
2022-09-01T16:22:23.731Z,54.00
2022-09-01T16:24:01.528Z,49.80
2022-09-01T16:25:37.458Z,49.00
2022-09-01T16:27:10.764Z,46.80
2022-09-01T16:28:42.900Z,48.40
2022-09-01T16:30:22.566Z,45.00
2022-09-01T16:31:58.813Z,42.80
2022-09-01T16:33:33.301Z,42.20
2022-09-01T16:35:05.985Z,46.80
2022-09-01T16:37:06.045Z,35.20
2022-09-01T16:38:46.576Z,38.20
2022-09-01T16:40:41.460Z,36.20
2022-09-01T16:42:27.500Z,387.50
2022-09-01T16:44:13.772Z,307.00
2022-09-01T16:46:05.746Z,251.00
2022-09-01T16:47:55.701Z,238.67
2022-09-01T16:50:09.459Z,199.00
2022-09-01T16:51:53.805Z,187.25
2022-09-01T16:53:44.121Z,167.25
2022-09-01T16:55:31.983Z,145.00
2022-09-01T16:57:15.175Z,159.00
2022-09-01T16:59:03.859Z,201.25
2022-09-01T17:01:07.431Z,196.25
2022-09-01T17:03:02.296Z,195.25
2022-09-01T17:04:58.894Z,174.75
2022-09-01T17:07:09.375Z,163.25
2022-09-01T17:08:52.689Z,159.50
2022-09-01T17:10:34.611Z,157.25
2022-09-01T17:12:30.567Z,151.50
2022-09-01T17:14:03.083Z,153.00
2022-09-01T17:15:44.300Z,139.25
2022-09-01T17:17:20.923Z,144.25
2022-09-01T17:18:58.468Z,130.75
2022-09-01T17:20:31.492Z,139.50
2022-09-01T17:22:12.021Z,131.25
2022-09-01T17:24:21.337Z,119.00
2022-09-01T17:26:04.166Z,116.00
2022-09-01T17:27:38.984Z,113.00
2022-09-01T17:29:30.427Z,118.25
2022-09-01T17:31:14.714Z,108.50
2022-09-01T17:33:17.164Z,107.75
2022-09-01T17:34:58.083Z,130.50
2022-09-01T17:37:12.087Z,333.50
2022-09-01T17:39:01.246Z,233.67
2022-09-01T17:40:46.281Z,205.50
2022-09-01T17:42:21.842Z,210.25
2022-09-01T17:44:18.244Z,194.00
2022-09-01T17:46:14.082Z,197.25
2022-09-01T17:48:13.631Z,170.50
2022-09-01T17:50:21.215Z,182.25
2022-09-01T17:52:15.205Z,178.50
2022-09-01T17:54:13.103Z,169.00
2022-09-01T17:55:55.392Z,174.75
2022-09-01T17:57:38.848Z,170.25
2022-09-01T17:59:28.611Z,157.25
2022-09-01T18:01:10.153Z,231.00
2022-09-01T18:02:48.344Z,217.33
2022-09-01T18:04:45.345Z,224.00
2022-09-01T18:06:34.661Z,206.00
2022-09-01T18:08:18.692Z,214.50
2022-09-01T18:09:55.926Z,196.25
2022-09-01T18:11:39.946Z,197.25
2022-09-01T18:13:59.717Z,178.50
2022-09-01T18:15:48.120Z,160.00
2022-09-01T18:17:33.351Z,177.00
2022-09-01T18:19:09.302Z,159.75
2022-09-01T18:20:47.407Z,163.25
2022-09-01T18:22:21.811Z,215.33
2022-09-01T18:24:02.316Z,223.00
2022-09-01T18:25:56.362Z,214.00
2022-09-01T18:27:32.745Z,161.25
2022-09-01T18:29:05.918Z,213.00
2022-09-01T18:31:02.710Z,209.75
2022-09-01T18:32:43.939Z,203.75
2022-09-01T18:34:20.022Z,192.75
2022-09-01T18:36:18.517Z,169.75
2022-09-01T18:38:07.811Z,190.00
2022-09-01T18:40:04.729Z,189.75
2022-09-01T18:42:04.533Z,176.75
2022-09-01T18:44:04.195Z,173.00
2022-09-01T18:46:01.691Z,173.25
2022-09-01T18:47:44.436Z,171.75
2022-09-01T18:49:24.271Z,144.00
2022-09-01T18:51:18.189Z,153.25
2022-09-01T18:53:14.660Z,248.67
2022-09-01T18:54:59.253Z,228.75
2022-09-01T18:56:37.558Z,209.00
2022-09-01T18:58:24.624Z,214.75
2022-09-01T19:00:03.081Z,193.25
2022-09-01T19:02:07.106Z,205.25
2022-09-01T19:03:48.743Z,190.50
2022-09-01T19:05:33.599Z,194.50
2022-09-01T19:07:38.817Z,181.50
2022-09-01T19:09:14.386Z,189.00
2022-09-01T19:11:01.407Z,356.50
2022-09-01T19:12:45.107Z,408.80
2022-09-01T19:14:49.512Z,346.25
2022-09-01T19:16:34.766Z,302.00
2022-09-01T19:18:15.382Z,276.67
2022-09-01T19:19:59.843Z,267.67
2022-09-01T19:21:32.403Z,237.67
2022-09-01T19:23:35.938Z,222.33
2022-09-01T19:25:29.279Z,223.33
2022-09-01T19:27:12.180Z,211.75
2022-09-01T19:29:01.483Z,204.25
2022-09-01T19:30:35.428Z,186.50
2022-09-01T19:32:09.131Z,194.25
2022-09-01T19:33:43.293Z,196.75
2022-09-01T19:35:16.571Z,173.50
2022-09-01T19:36:51.927Z,171.75
2022-09-01T19:38:27.790Z,182.00
2022-09-01T19:40:00.989Z,168.50
2022-09-01T19:42:03.958Z,167.75
2022-09-01T19:43:36.797Z,155.50
2022-09-01T19:45:16.978Z,152.75
2022-09-01T19:46:53.012Z,159.50
2022-09-01T19:48:38.307Z,156.00
2022-09-01T19:50:21.297Z,118.50
2022-09-01T19:52:11.260Z,174.75
2022-09-01T19:54:03.760Z,238.00
2022-09-01T19:55:35.507Z,212.50
2022-09-01T19:57:30.740Z,188.00
2022-09-01T19:59:21.250Z,190.75
2022-09-01T20:01:01.445Z,173.25
2022-09-01T20:02:42.117Z,178.75
2022-09-01T20:04:26.778Z,189.25
2022-09-01T20:06:14.120Z,176.25
2022-09-01T20:08:03.223Z,156.00
2022-09-01T20:09:39.527Z,164.75
2022-09-01T20:11:35.130Z,160.25
2022-09-01T20:13:25.208Z,153.00
2022-09-01T20:15:45.700Z,144.00
2022-09-01T20:17:32.883Z,185.25
2022-09-01T20:19:10.514Z,240.67
2022-09-01T20:20:46.632Z,207.50
2022-09-01T20:22:24.703Z,181.50
2022-09-01T20:24:38.526Z,187.50
2022-09-01T20:26:23.405Z,188.25
2022-09-01T20:28:07.187Z,178.50
2022-09-01T20:29:59.271Z,181.25
2022-09-01T20:31:35.260Z,167.25
2022-09-01T20:33:54.289Z,186.25
2022-09-01T20:35:39.814Z,188.25
2022-09-01T20:37:11.737Z,169.75
2022-09-01T20:39:10.970Z,169.75
2022-09-01T20:40:42.902Z,153.50
2022-09-01T20:44:54.486Z,147.25
2022-09-01T20:46:26.789Z,146.50
2022-09-01T20:48:07.087Z,149.25
2022-09-01T20:49:39.006Z,153.00
2022-09-01T20:51:54.095Z,147.50
2022-09-01T20:53:35.020Z,131.00
2022-09-01T20:55:10.983Z,132.00
2022-09-01T20:57:12.130Z,133.80
2022-09-01T20:58:44.904Z,204.75
2022-09-01T21:00:16.542Z,194.00
2022-09-01T21:02:04.985Z,180.75
2022-09-01T21:03:50.165Z,184.00
2022-09-01T21:05:36.180Z,169.00
2022-09-01T21:07:21.785Z,170.50
2022-09-01T21:09:03.783Z,167.75
2022-09-01T21:10:41.283Z,156.00
2022-09-01T21:12:30.864Z,148.75
2022-09-01T21:14:13.875Z,147.25
2022-09-01T21:15:55.492Z,152.00
2022-09-01T21:17:27.145Z,142.25
2022-09-01T21:19:18.079Z,136.25
2022-09-01T21:21:00.693Z,132.50
2022-09-01T21:22:32.651Z,135.80
2022-09-01T21:24:07.552Z,134.60
2022-09-01T21:25:39.271Z,125.80
2022-09-01T21:27:22.712Z,108.60
2022-09-01T21:28:56.013Z,109.00
2022-09-01T21:30:30.711Z,121.75
2022-09-01T21:32:02.971Z,76.00
2022-09-01T21:33:35.115Z,76.50
2022-09-01T21:35:09.622Z,71.00
2022-09-01T21:36:41.603Z,70.50
2022-09-01T21:38:13.518Z,73.50
2022-09-01T21:39:45.456Z,65.60
2022-09-01T21:41:17.177Z,62.60
2022-09-01T21:42:51.764Z,111.25
2022-09-01T21:44:23.548Z,120.50
2022-09-01T21:45:55.462Z,136.25
2022-09-01T21:47:28.164Z,124.00
2022-09-01T21:49:00.092Z,133.60
2022-09-01T21:50:31.918Z,132.00
2022-09-01T21:52:04.514Z,118.60
2022-09-01T21:53:36.416Z,113.20
2022-09-01T21:55:08.891Z,106.25
2022-09-01T21:56:40.728Z,84.25
2022-09-01T21:58:12.536Z,103.75
2022-09-01T21:59:44.556Z,98.00
2022-09-01T22:01:16.351Z,95.50
2022-09-01T22:02:48.462Z,107.25
2022-09-01T22:04:21.120Z,94.00
2022-09-01T22:05:53.073Z,88.25
2022-09-01T22:07:24.823Z,84.50
2022-09-01T22:08:56.786Z,87.00
2022-09-01T22:10:29.608Z,74.25
2022-09-01T22:12:03.671Z,76.75
2022-09-01T22:13:35.733Z,74.25
2022-09-01T22:15:09.243Z,76.25
2022-09-01T22:16:42.687Z,76.25
2022-09-01T22:18:15.033Z,78.00
2022-09-01T22:19:46.782Z,102.75
2022-09-01T22:21:18.801Z,190.00
2022-09-01T22:22:51.020Z,174.25
2022-09-01T22:24:22.801Z,151.75
2022-09-01T22:25:54.581Z,131.75
2022-09-01T22:27:26.547Z,122.20
2022-09-01T22:28:59.563Z,128.20
2022-09-01T22:30:31.837Z,127.40
2022-09-01T22:32:03.875Z,105.00
2022-09-01T22:33:35.580Z,100.25
